Time;durP1;ratioP1;P1;durP2;ratioP2;P2;SDS_P1;SDS_P2;PMS_P1;PMS_P2;Temp;Humidity;BMP_temperature;BMP_pressure;BME280_temperature;BME280_humidity;BME280_pressure;Samples;Min_cycle;Max_cycle;Signal;HPM_P1;HPM_P2
2023/01/30 00:02:15;;;;;;;37.57;25.80;;;4.20;99.90;;;;;;5087827;28;20464;-75
2023/01/30 00:04:43;;;;;;;37.37;25.43;;;4.30;99.90;;;;;;5090562;28;21074;-76
2023/01/30 00:07:13;;;;;;;34.77;25.37;;;4.20;99.90;;;;;;5087553;28;20460;-73
2023/01/30 00:09:46;;;;;;;37.00;26.47;;;4.30;99.90;;;;;;5092414;28;21158;-76
2023/01/30 00:12:19;;;;;;;37.90;26.87;;;4.30;99.90;;;;;;5093000;28;20465;-75
2023/01/30 00:14:54;;;;;;;39.40;26.80;;;4.30;99.90;;;;;;5098156;28;20472;-75
2023/01/30 00:17:23;;;;;;;41.97;26.57;;;4.30;99.90;;;;;;5092995;28;20467;-74
2023/01/30 00:19:51;;;;;;;38.40;26.23;;;4.40;99.90;;;;;;5095472;28;20507;-77
2023/01/30 00:22:21;;;;;;;39.07;25.60;;;4.40;99.90;;;;;;5098125;28;20468;-75
2023/01/30 00:24:54;;;;;;;42.67;26.70;;;4.40;99.90;;;;;;5098701;28;20464;-76
2023/01/30 00:27:24;;;;;;;38.70;26.30;;;4.40;99.90;;;;;;5096269;28;20491;-76
2023/01/30 00:29:53;;;;;;;38.23;27.07;;;4.50;99.90;;;;;;5099062;28;21055;-72
2023/01/30 00:32:31;;;;;;;36.20;25.23;;;4.50;99.90;;;;;;5096372;28;20464;-78
2023/01/30 00:35:05;;;;;;;38.53;26.93;;;4.50;99.90;;;;;;5097938;28;20473;-73
2023/01/30 00:37:38;;;;;;;37.63;25.80;;;4.50;99.90;;;;;;5077853;28;20491;-72
2023/01/30 00:40:11;;;;;;;34.70;24.73;;;4.60;99.90;;;;;;5092144;28;20492;-73
2023/01/30 00:48:20;;;;;;;36.83;26.43;;;4.60;99.90;;;;;;5084300;28;21152;-73
2023/01/30 00:50:50;;;;;;;39.93;25.50;;;4.60;99.90;;;;;;5083857;28;20479;-73
2023/01/30 00:53:24;;;;;;;35.97;24.97;;;4.60;99.90;;;;;;5073448;28;20485;-74
2023/01/30 00:56:06;;;;;;;38.50;26.23;;;4.60;99.90;;;;;;5085029;28;20470;-74
2023/01/30 00:58:37;;;;;;;35.37;25.97;;;4.70;99.90;;;;;;5082684;28;20480;-73
2023/01/30 01:01:05;;;;;;;39.63;26.23;;;4.70;99.90;;;;;;5073863;28;20500;-74
2023/01/30 01:03:35;;;;;;;36.30;24.37;;;4.70;99.90;;;;;;5073128;28;20973;-74
2023/01/30 01:06:06;;;;;;;34.57;25.00;;;4.70;99.90;;;;;;5069280;28;20468;-74
2023/01/30 01:08:36;;;;;;;37.20;24.93;;;4.70;99.90;;;;;;5066842;28;20492;-73
2023/01/30 01:11:04;;;;;;;33.10;24.97;;;4.80;99.90;;;;;;5058123;28;20480;-74
2023/01/30 01:13:36;;;;;;;35.43;23.83;;;4.80;99.90;;;;;;5067762;28;20491;-73
2023/01/30 01:16:04;;;;;;;34.97;23.40;;;4.80;99.90;;;;;;5093238;28;20480;-75
2023/01/30 01:18:32;;;;;;;31.60;23.27;;;4.90;99.90;;;;;;5072337;28;20488;-74
2023/01/30 01:21:03;;;;;;;35.07;24.13;;;4.90;99.90;;;;;;5064833;28;20492;-74
2023/01/30 01:23:31;;;;;;;33.80;23.87;;;4.90;99.90;;;;;;5065755;28;20484;-73
2023/01/30 01:26:07;;;;;;;37.23;24.67;;;4.90;99.90;;;;;;5066068;28;20492;-73
2023/01/30 01:28:37;;;;;;;33.87;24.67;;;4.90;99.90;;;;;;5062254;28;20481;-74
2023/01/30 01:31:09;;;;;;;34.40;23.27;;;4.90;99.90;;;;;;5066980;28;20468;-74
2023/01/30 01:33:41;;;;;;;33.13;23.07;;;4.90;99.90;;;;;;5068880;28;20487;-74
2023/01/30 01:36:09;;;;;;;32.70;22.40;;;4.90;99.90;;;;;;5070340;28;20472;-74
2023/01/30 01:38:39;;;;;;;33.30;23.50;;;5.00;99.90;;;;;;5065768;28;20484;-74
2023/01/30 01:41:08;;;;;;;32.97;24.20;;;5.00;99.90;;;;;;5064339;28;20563;-74
2023/01/30 01:43:58;;;;;;;30.70;23.00;;;5.00;99.90;;;;;;5071215;28;20539;-74
2023/01/30 01:46:30;;;;;;;31.00;21.27;;;5.00;99.90;;;;;;5080785;28;20473;-73
2023/01/30 01:49:02;;;;;;;32.60;22.27;;;5.00;99.90;;;;;;5083419;28;21005;-74
2023/01/30 01:51:34;;;;;;;32.40;23.53;;;5.00;99.90;;;;;;5079458;28;20490;-73
2023/01/30 01:54:07;;;;;;;29.70;21.30;;;5.00;99.90;;;;;;5088668;28;20493;-74
2023/01/30 01:56:45;;;;;;;31.23;21.13;;;5.10;99.90;;;;;;5083681;28;20472;-73
2023/01/30 01:59:27;;;;;;;30.20;20.83;;;5.10;99.90;;;;;;5086802;28;20571;-74
2023/01/30 02:02:03;;;;;;;30.93;22.30;;;5.00;99.90;;;;;;5089249;28;20492;-74
2023/01/30 02:07:22;;;;;;;27.10;21.27;;;5.10;99.90;;;;;;5076693;28;20546;-71
2023/01/30 02:09:52;;;;;;;33.73;22.27;;;5.10;99.90;;;;;;5079050;28;20480;-71
2023/01/30 02:12:30;;;;;;;29.27;20.97;;;5.10;99.90;;;;;;5080753;28;20879;-70
2023/01/30 02:15:02;;;;;;;29.00;19.87;;;5.10;99.90;;;;;;5084329;28;20859;-70
2023/01/30 02:17:30;;;;;;;28.10;20.60;;;5.10;99.90;;;;;;5080116;28;20528;-71
2023/01/30 02:20:08;;;;;;;29.30;20.23;;;5.10;99.90;;;;;;5071297;28;20496;-70
2023/01/30 02:23:10;;;;;;;27.27;19.60;;;5.10;99.90;;;;;;5052519;28;20495;-71
2023/01/30 02:26:12;;;;;;;25.23;19.60;;;5.10;99.90;;;;;;5020298;28;20466;-71
2023/01/30 02:29:07;;;;;;;28.33;19.33;;;5.20;99.90;;;;;;5030902;28;20496;-71
2023/01/30 02:31:49;;;;;;;23.37;18.47;;;5.20;99.90;;;;;;5059395;28;20476;-72
2023/01/30 02:34:35;;;;;;;25.17;18.10;;;5.20;99.90;;;;;;5068965;28;20492;-70
2023/01/30 02:37:15;;;;;;;27.27;19.20;;;5.20;99.90;;;;;;5053284;28;20475;-71
2023/01/30 02:40:03;;;;;;;29.07;19.93;;;5.20;99.90;;;;;;5065847;28;20488;-72
2023/01/30 02:42:38;;;;;;;26.90;18.97;;;5.30;99.90;;;;;;5068728;28;20484;-70
2023/01/30 02:45:16;;;;;;;26.20;19.27;;;5.30;99.90;;;;;;5080092;28;20488;-71
2023/01/30 02:48:03;;;;;;;26.40;18.50;;;5.30;99.90;;;;;;5073460;28;20546;-71
2023/01/30 02:50:42;;;;;;;23.67;18.00;;;5.30;99.90;;;;;;5067448;28;20492;-71
2023/01/30 02:53:10;;;;;;;25.87;18.10;;;5.30;99.90;;;;;;5068377;28;20461;-71
2023/01/30 02:55:46;;;;;;;24.83;17.37;;;5.40;99.90;;;;;;5087208;28;20465;-71
2023/01/30 02:58:26;;;;;;;22.30;16.83;;;5.40;99.90;;;;;;5054797;28;20496;-71
2023/01/30 03:01:31;;;;;;;21.73;17.37;;;5.40;99.90;;;;;;5046184;28;20909;-70
2023/01/30 03:04:17;;;;;;;23.80;16.53;;;5.40;99.90;;;;;;5042601;28;20501;-71
2023/01/30 03:07:01;;;;;;;21.27;15.93;;;5.40;99.90;;;;;;5043976;28;20554;-70
2023/01/30 03:09:39;;;;;;;22.30;16.37;;;5.40;99.90;;;;;;5046735;28;20489;-70
2023/01/30 03:12:16;;;;;;;20.73;15.37;;;5.50;99.90;;;;;;5048741;28;20562;-70
2023/01/30 03:14:51;;;;;;;25.03;16.47;;;5.50;99.90;;;;;;5057799;28;20489;-71
2023/01/30 03:17:23;;;;;;;17.30;14.70;;;5.50;99.90;;;;;;5061133;28;20892;-70
2023/01/30 03:19:53;;;;;;;21.90;15.70;;;5.50;99.90;;;;;;5055871;28;20550;-71
2023/01/30 03:22:23;;;;;;;19.73;14.37;;;5.60;99.90;;;;;;5043060;28;20507;-70
2023/01/30 03:24:56;;;;;;;17.40;13.10;;;5.60;99.90;;;;;;5041330;28;20497;-70
2023/01/30 03:27:27;;;;;;;17.53;13.50;;;5.60;99.90;;;;;;5065994;28;20469;-71
2023/01/30 03:29:59;;;;;;;17.90;14.37;;;5.60;99.90;;;;;;5065363;28;20546;-70
2023/01/30 03:32:29;;;;;;;20.53;12.40;;;5.70;99.90;;;;;;5042329;28;20469;-70
2023/01/30 03:35:06;;;;;;;16.50;12.80;;;5.70;99.90;;;;;;5037307;28;20829;-72
2023/01/30 03:37:39;;;;;;;15.27;12.67;;;5.70;99.90;;;;;;5038629;28;20466;-70
2023/01/30 03:40:08;;;;;;;16.00;11.50;;;5.70;99.90;;;;;;5037427;28;20501;-70
2023/01/30 03:42:36;;;;;;;14.80;11.50;;;5.70;99.90;;;;;;5048089;28;20494;-70
2023/01/30 03:45:07;;;;;;;14.23;11.83;;;5.70;99.90;;;;;;5042216;28;20490;-70
2023/01/30 03:47:43;;;;;;;13.30;11.27;;;5.80;99.90;;;;;;5052031;28;20474;-70
2023/01/30 03:50:14;;;;;;;11.20;9.80;;;5.80;99.90;;;;;;5050440;28;20496;-70
2023/01/30 03:52:44;;;;;;;11.57;10.03;;;5.80;99.90;;;;;;5055964;28;20526;-71
2023/01/30 03:55:13;;;;;;;12.23;9.90;;;5.90;99.90;;;;;;5057820;28;20515;-70
2023/01/30 03:57:46;;;;;;;10.23;8.47;;;5.90;99.90;;;;;;5061652;28;21029;-70
2023/01/30 04:00:27;;;;;;;10.77;9.03;;;5.90;99.90;;;;;;5072038;28;20477;-70
2023/01/30 04:02:58;;;;;;;12.97;9.40;;;5.90;99.90;;;;;;5074358;28;20571;-69
2023/01/30 04:05:33;;;;;;;11.07;8.97;;;5.90;99.90;;;;;;5082000;28;20561;-70
2023/01/30 04:08:01;;;;;;;11.60;8.23;;;6.00;99.90;;;;;;5077962;28;20464;-70
2023/01/30 04:10:29;;;;;;;11.87;9.33;;;6.00;99.90;;;;;;5079968;28;20457;-70
2023/01/30 04:12:59;;;;;;;10.67;8.90;;;6.00;99.90;;;;;;5081659;28;20476;-70
2023/01/30 04:15:36;;;;;;;9.93;8.53;;;6.00;99.90;;;;;;5082422;28;20500;-70
2023/01/30 04:18:06;;;;;;;9.90;7.57;;;6.10;99.90;;;;;;5059994;28;20468;-70
2023/01/30 04:20:37;;;;;;;11.47;8.90;;;6.10;99.90;;;;;;5064771;28;23156;-70
2023/01/30 04:23:11;;;;;;;10.33;7.50;;;6.20;99.90;;;;;;5052587;28;20637;-70
2023/01/30 04:25:40;;;;;;;9.20;6.87;;;6.20;99.90;;;;;;5075225;28;20478;-70
2023/01/30 04:28:12;;;;;;;8.13;6.00;;;6.20;99.90;;;;;;5067469;28;20488;-70
2023/01/30 04:30:43;;;;;;;7.70;5.40;;;6.20;99.90;;;;;;5075075;28;20551;-70
2023/01/30 04:33:11;;;;;;;4.97;3.50;;;6.20;99.90;;;;;;5067045;28;21083;-70
2023/01/30 04:35:51;;;;;;;4.83;3.33;;;6.20;99.90;;;;;;5059675;28;20507;-70
2023/01/30 04:38:19;;;;;;;5.20;3.30;;;6.20;99.90;;;;;;5066141;28;20494;-70
2023/01/30 04:40:49;;;;;;;3.60;2.67;;;6.10;99.90;;;;;;5066063;28;20476;-70
2023/01/30 04:43:20;;;;;;;3.43;2.20;;;6.10;99.90;;;;;;5065485;28;20492;-70
2023/01/30 04:45:55;;;;;;;2.90;2.20;;;6.10;99.90;;;;;;5074559;28;20954;-70
2023/01/30 04:48:25;;;;;;;6.20;2.93;;;6.10;99.90;;;;;;5064940;28;20495;-70
2023/01/30 04:51:00;;;;;;;3.37;2.27;;;6.10;99.90;;;;;;5063506;28;20465;-70
2023/01/30 04:53:38;;;;;;;7.77;2.97;;;6.10;99.90;;;;;;5080767;28;20896;-70
2023/01/30 04:56:07;;;;;;;4.90;2.33;;;6.00;99.90;;;;;;5086498;28;20471;-70
2023/01/30 04:58:38;;;;;;;4.10;2.10;;;6.00;99.90;;;;;;5081578;28;20480;-70
2023/01/30 05:01:20;;;;;;;5.20;2.50;;;6.00;99.90;;;;;;5085834;28;20476;-71
2023/01/30 05:03:51;;;;;;;5.53;2.97;;;6.00;99.90;;;;;;5073736;28;20921;-71
2023/01/30 05:06:23;;;;;;;6.30;3.20;;;6.00;99.90;;;;;;5076802;28;20472;-71
2023/01/30 05:08:54;;;;;;;8.73;3.73;;;6.00;99.90;;;;;;5067261;28;20495;-70
2023/01/30 05:11:29;;;;;;;6.07;3.50;;;6.00;99.90;;;;;;5067942;28;20551;-70
2023/01/30 05:13:59;;;;;;;5.97;3.27;;;6.00;99.90;;;;;;5074833;28;20492;-70
2023/01/30 05:16:32;;;;;;;4.80;3.60;;;6.00;99.90;;;;;;5077871;28;20483;-70
2023/01/30 05:19:00;;;;;;;4.63;2.83;;;6.00;99.90;;;;;;5086239;28;20488;-70
2023/01/30 05:21:32;;;;;;;7.43;3.20;;;6.00;99.90;;;;;;5086084;28;20477;-70
2023/01/30 05:23:59;;;;;;;4.60;2.67;;;6.00;99.90;;;;;;5073548;28;20489;-70
2023/01/30 05:26:31;;;;;;;5.40;3.70;;;6.10;99.90;;;;;;5085981;28;20473;-71
2023/01/30 05:29:03;;;;;;;6.80;2.60;;;6.00;99.90;;;;;;5068767;28;20498;-70
2023/01/30 05:31:37;;;;;;;6.00;2.60;;;6.10;99.90;;;;;;5071459;28;20480;-70
2023/01/30 05:34:05;;;;;;;7.40;2.30;;;6.10;99.90;;;;;;5072558;28;20549;-71
2023/01/30 05:36:35;;;;;;;6.20;2.60;;;6.10;99.90;;;;;;5075478;28;20519;-71
2023/01/30 05:39:08;;;;;;;6.37;2.47;;;6.10;99.90;;;;;;5058754;28;20492;-70
2023/01/30 05:41:41;;;;;;;4.47;3.17;;;6.10;99.90;;;;;;5068421;28;21054;-71
2023/01/30 05:44:12;;;;;;;4.83;2.30;;;6.10;99.90;;;;;;5080428;28;20499;-71
2023/01/30 05:46:41;;;;;;;8.43;1.93;;;6.00;99.90;;;;;;5078451;28;20484;-70
2023/01/30 05:49:16;;;;;;;6.40;2.20;;;6.00;99.90;;;;;;5082176;28;20542;-71
2023/01/30 05:51:45;;;;;;;5.70;2.10;;;6.00;99.90;;;;;;5080297;28;20473;-71
2023/01/30 05:54:13;;;;;;;7.67;2.27;;;6.00;99.90;;;;;;5079074;28;20492;-71
2023/01/30 05:56:49;;;;;;;7.80;2.40;;;6.00;99.90;;;;;;5080654;28;20464;-71
2023/01/30 05:59:25;;;;;;;5.33;1.93;;;5.90;99.90;;;;;;5080814;28;20516;-71
2023/01/30 06:01:53;;;;;;;6.53;2.20;;;5.90;99.90;;;;;;5078324;28;20467;-70
2023/01/30 06:04:27;;;;;;;6.10;1.70;;;5.90;99.90;;;;;;5078411;28;20484;-70
2023/01/30 06:07:04;;;;;;;7.67;1.80;;;5.80;99.90;;;;;;5075916;28;21014;-71
2023/01/30 06:09:32;;;;;;;5.20;2.00;;;5.80;99.90;;;;;;5085228;28;20479;-71
2023/01/30 06:12:03;;;;;;;6.20;1.83;;;5.80;99.90;;;;;;5082535;28;20464;-71
2023/01/30 06:14:40;;;;;;;8.13;2.27;;;5.80;99.90;;;;;;5084465;28;20507;-71
2023/01/30 06:17:16;;;;;;;8.30;2.40;;;5.80;99.90;;;;;;5080391;28;20476;-70
2023/01/30 06:19:44;;;;;;;8.33;1.93;;;5.80;99.90;;;;;;5074445;28;20922;-71
2023/01/30 06:22:15;;;;;;;5.57;1.70;;;5.70;99.90;;;;;;5055865;28;20465;-71
2023/01/30 06:24:45;;;;;;;11.00;2.87;;;5.70;99.90;;;;;;5053039;28;21092;-70
2023/01/30 06:27:13;;;;;;;7.97;3.33;;;5.70;99.90;;;;;;5061403;28;21091;-72
2023/01/30 06:29:44;;;;;;;5.17;1.90;;;5.60;99.90;;;;;;5052575;28;20492;-70
2023/01/30 06:32:14;;;;;;;12.73;2.47;;;5.60;99.90;;;;;;5065548;28;20461;-70
2023/01/30 06:34:43;;;;;;;4.03;1.90;;;5.50;99.90;;;;;;5051246;28;20497;-70
2023/01/30 06:37:14;;;;;;;8.27;2.03;;;5.50;99.90;;;;;;5051356;28;20551;-70
2023/01/30 06:39:41;;;;;;;10.10;2.33;;;5.50;99.90;;;;;;5040407;28;20491;-71
2023/01/30 06:42:09;;;;;;;10.07;2.23;;;5.40;99.90;;;;;;5046893;28;20472;-70
2023/01/30 06:44:37;;;;;;;6.17;1.73;;;5.40;99.90;;;;;;5038694;28;20493;-70
2023/01/30 06:47:05;;;;;;;6.17;2.43;;;5.40;99.90;;;;;;5046363;28;20504;-71
2023/01/30 06:49:33;;;;;;;10.57;1.73;;;5.40;99.90;;;;;;5049827;28;21284;-71
2023/01/30 06:52:01;;;;;;;5.03;1.80;;;5.40;99.90;;;;;;5044643;28;20477;-71
2023/01/30 06:54:30;;;;;;;7.77;2.43;;;5.30;99.90;;;;;;5052019;28;20566;-71
2023/01/30 06:56:58;;;;;;;7.07;2.40;;;5.40;99.90;;;;;;5066830;28;20477;-71
2023/01/30 06:59:26;;;;;;;7.03;1.90;;;5.40;99.90;;;;;;5047948;28;20945;-71
2023/01/30 07:01:54;;;;;;;9.73;2.40;;;5.40;99.90;;;;;;5049050;28;20470;-70
2023/01/30 07:04:22;;;;;;;13.47;3.80;;;5.40;99.90;;;;;;5061545;28;21005;-71
2023/01/30 07:06:50;;;;;;;9.20;2.73;;;5.40;99.90;;;;;;5074839;28;20856;-71
2023/01/30 07:09:18;;;;;;;9.83;2.40;;;5.40;99.90;;;;;;5069640;28;20481;-70
2023/01/30 07:11:49;;;;;;;7.33;2.23;;;5.40;99.90;;;;;;5067296;28;20476;-70
2023/01/30 07:14:17;;;;;;;9.80;2.70;;;5.30;99.90;;;;;;5069414;28;20482;-71
2023/01/30 07:16:45;;;;;;;6.53;1.90;;;5.30;99.90;;;;;;5061154;28;20841;-71
2023/01/30 07:19:13;;;;;;;7.13;2.03;;;5.30;99.90;;;;;;5048977;28;20492;-71
2023/01/30 07:21:41;;;;;;;7.87;2.77;;;5.30;99.90;;;;;;5065122;28;20823;-71
2023/01/30 07:24:09;;;;;;;7.77;2.50;;;5.20;99.90;;;;;;5055149;28;20488;-70
2023/01/30 07:26:37;;;;;;;7.27;1.93;;;5.30;99.90;;;;;;5053344;28;20838;-71
2023/01/30 07:29:09;;;;;;;6.10;1.80;;;5.30;99.90;;;;;;5043359;28;20767;-70
2023/01/30 07:31:37;;;;;;;10.43;2.47;;;5.30;99.90;;;;;;5039297;28;20473;-70
2023/01/30 07:34:05;;;;;;;11.67;2.77;;;5.30;99.90;;;;;;5057587;28;21329;-70
2023/01/30 07:36:33;;;;;;;9.17;2.80;;;5.30;99.90;;;;;;5051432;28;20480;-71
2023/01/30 07:39:01;;;;;;;8.37;2.10;;;5.30;99.90;;;;;;5053783;28;20488;-71
2023/01/30 07:41:29;;;;;;;9.20;2.67;;;5.30;99.90;;;;;;5047857;28;20484;-71
2023/01/30 07:43:57;;;;;;;10.57;2.93;;;5.30;99.90;;;;;;5048533;28;20706;-70
2023/01/30 07:46:33;;;;;;;6.97;2.60;;;5.30;99.90;;;;;;5075153;28;20487;-71
2023/01/30 07:49:01;;;;;;;16.60;3.37;;;5.30;99.90;;;;;;5078101;28;20502;-71
2023/01/30 07:51:29;;;;;;;7.30;2.60;;;5.30;99.90;;;;;;5077228;28;20479;-71
2023/01/30 07:53:57;;;;;;;8.70;3.43;;;5.40;99.90;;;;;;5066534;28;20898;-71
2023/01/30 07:56:25;;;;;;;14.50;3.37;;;5.40;99.90;;;;;;5066461;28;20464;-70
2023/01/30 07:58:55;;;;;;;12.33;3.20;;;5.40;99.90;;;;;;5067009;28;20488;-71
2023/01/30 08:01:23;;;;;;;12.20;2.77;;;5.50;99.90;;;;;;5073649;28;21019;-70
2023/01/30 08:03:52;;;;;;;16.00;4.03;;;5.50;99.90;;;;;;5071709;28;21026;-70
2023/01/30 08:06:20;;;;;;;13.40;3.90;;;5.60;99.90;;;;;;5078298;28;20472;-71
2023/01/30 08:08:48;;;;;;;15.27;4.60;;;5.70;99.90;;;;;;5081717;28;20488;-71
2023/01/30 08:11:17;;;;;;;18.60;4.50;;;5.70;99.90;;;;;;5079044;28;20464;-70
2023/01/30 08:13:46;;;;;;;18.07;3.97;;;5.70;99.90;;;;;;5073841;28;20551;-70
2023/01/30 08:16:14;;;;;;;17.57;4.40;;;5.60;99.90;;;;;;5074328;28;20472;-70
2023/01/30 08:18:42;;;;;;;12.13;3.70;;;5.60;99.90;;;;;;5056672;28;21996;-70
2023/01/30 08:21:11;;;;;;;17.30;3.83;;;5.60;99.90;;;;;;5068518;28;20476;-74
2023/01/30 08:23:39;;;;;;;12.60;3.53;;;5.70;99.90;;;;;;5076968;28;20859;-74
2023/01/30 08:26:08;;;;;;;11.40;3.10;;;5.70;99.90;;;;;;5069506;28;20495;-72
2023/01/30 08:28:36;;;;;;;19.23;5.43;;;5.70;99.90;;;;;;5066208;28;20477;-70
2023/01/30 08:31:10;;;;;;;15.83;4.07;;;5.70;99.90;;;;;;5052768;28;20472;-70
2023/01/30 08:33:38;;;;;;;15.47;4.10;;;5.70;99.90;;;;;;5056745;28;20519;-71
2023/01/30 08:36:07;;;;;;;10.70;3.80;;;5.70;99.90;;;;;;5050692;28;21163;-70
2023/01/30 08:38:36;;;;;;;15.53;4.00;;;5.70;99.90;;;;;;5058289;28;20484;-71
2023/01/30 08:41:08;;;;;;;15.70;4.30;;;5.80;99.90;;;;;;5071552;28;20470;-71
2023/01/30 08:43:36;;;;;;;17.60;4.20;;;5.80;99.90;;;;;;5066265;28;20487;-70
2023/01/30 08:46:05;;;;;;;15.03;4.47;;;5.80;99.90;;;;;;5070732;28;20489;-71
2023/01/30 08:48:33;;;;;;;12.03;3.60;;;5.90;99.90;;;;;;5070897;28;20484;-71
2023/01/30 08:51:16;;;;;;;17.47;4.60;;;5.90;99.90;;;;;;5066831;28;20467;-70
2023/01/30 08:53:45;;;;;;;14.87;4.40;;;5.90;99.90;;;;;;5061114;28;20658;-70
2023/01/30 08:56:13;;;;;;;18.57;4.23;;;5.90;99.90;;;;;;5055827;28;20472;-70
2023/01/30 08:58:45;;;;;;;17.43;4.37;;;6.00;99.90;;;;;;5065512;28;20488;-70
2023/01/30 09:01:13;;;;;;;18.13;4.27;;;6.00;99.90;;;;;;5068968;28;20475;-71
2023/01/30 09:03:41;;;;;;;14.50;3.77;;;6.00;99.90;;;;;;5054389;28;21027;-71
2023/01/30 09:06:12;;;;;;;19.40;5.93;;;6.10;99.90;;;;;;5067779;28;20480;-71
2023/01/30 09:08:40;;;;;;;17.67;5.00;;;6.20;99.90;;;;;;5064282;28;20493;-71
2023/01/30 09:11:11;;;;;;;20.00;4.67;;;6.30;99.90;;;;;;5064958;28;20473;-71
2023/01/30 09:13:42;;;;;;;10.63;4.13;;;6.30;99.90;;;;;;5076436;28;20489;-71
2023/01/30 09:16:10;;;;;;;19.47;4.53;;;6.30;99.90;;;;;;5070977;28;20465;-71
2023/01/30 09:18:39;;;;;;;12.03;4.40;;;6.30;99.90;;;;;;5074739;28;20484;-71
2023/01/30 09:21:08;;;;;;;13.60;4.20;;;6.30;99.90;;;;;;5067712;28;21041;-71
2023/01/30 09:23:36;;;;;;;14.23;4.17;;;6.40;99.90;;;;;;5053696;28;20504;-70
2023/01/30 09:26:05;;;;;;;21.20;4.30;;;6.30;99.90;;;;;;5070181;28;20500;-70
2023/01/30 09:28:35;;;;;;;11.60;3.17;;;6.40;99.90;;;;;;5065858;28;20509;-71
2023/01/30 09:31:03;;;;;;;10.67;3.83;;;6.40;99.90;;;;;;5062224;28;20480;-71
2023/01/30 09:33:31;;;;;;;17.07;3.53;;;6.50;99.90;;;;;;5062494;28;20496;-71
2023/01/30 09:35:59;;;;;;;13.97;4.23;;;6.50;99.90;;;;;;5057130;28;20474;-71
2023/01/30 09:38:29;;;;;;;16.57;4.33;;;6.50;99.90;;;;;;5054841;28;20517;-71
2023/01/30 09:41:23;;;;;;;16.13;3.40;;;6.50;99.90;;;;;;5064036;28;20487;-70
2023/01/30 09:44:14;;;;;;;18.13;3.57;;;6.50;99.90;;;;;;5057646;28;20529;-71
2023/01/30 09:46:50;;;;;;;10.40;3.40;;;6.60;99.90;;;;;;5066157;28;20576;-69
2023/01/30 09:49:30;;;;;;;11.90;4.43;;;6.60;99.90;;;;;;5076043;28;21129;-71
2023/01/30 09:52:08;;;;;;;15.33;4.10;;;6.60;99.90;;;;;;5079966;28;21013;-71
2023/01/30 09:54:40;;;;;;;14.60;3.77;;;6.70;99.90;;;;;;5077663;28;20549;-71
2023/01/30 09:57:20;;;;;;;15.60;4.37;;;6.70;99.90;;;;;;5082771;28;20492;-71
2023/01/30 09:59:57;;;;;;;16.80;3.93;;;6.70;99.90;;;;;;5071645;28;20499;-71
2023/01/30 10:02:37;;;;;;;12.93;3.77;;;6.60;99.90;;;;;;5072293;28;20468;-70
2023/01/30 10:05:05;;;;;;;14.67;3.30;;;6.50;99.90;;;;;;5085868;28;21338;-71
2023/01/30 10:07:51;;;;;;;13.27;3.30;;;6.40;99.90;;;;;;5064026;28;20500;-71
2023/01/30 10:10:32;;;;;;;15.53;4.50;;;6.30;99.90;;;;;;5082138;28;20971;-71
2023/01/30 10:13:10;;;;;;;13.47;3.83;;;6.20;99.90;;;;;;5085430;28;21001;-71
2023/01/30 10:15:50;;;;;;;8.63;2.70;;;6.20;99.90;;;;;;5075715;28;20460;-70
2023/01/30 10:18:55;;;;;;;11.97;3.20;;;6.10;99.90;;;;;;5065751;28;20562;-70
2023/01/30 10:21:36;;;;;;;9.87;2.30;;;6.00;99.90;;;;;;5060776;28;20600;-71
2023/01/30 10:24:22;;;;;;;9.03;2.93;;;5.90;99.90;;;;;;5059789;28;20495;-71
2023/01/30 10:26:49;;;;;;;6.67;2.60;;;5.80;99.90;;;;;;5065814;28;21383;-71
2023/01/30 10:29:21;;;;;;;6.90;1.70;;;5.80;99.90;;;;;;5060885;28;20484;-70
2023/01/30 10:31:54;;;;;;;5.23;1.57;;;5.70;99.90;;;;;;5067454;28;21075;-71
2023/01/30 10:34:27;;;;;;;4.13;2.00;;;5.70;99.90;;;;;;5070684;28;20509;-71
2023/01/30 10:37:01;;;;;;;3.37;1.13;;;5.70;99.90;;;;;;5063304;28;20471;-71
2023/01/30 10:39:39;;;;;;;3.93;1.50;;;5.60;99.90;;;;;;5054820;28;20492;-72
2023/01/30 10:42:27;;;;;;;4.13;1.70;;;5.70;99.90;;;;;;5062583;28;21467;-72
2023/01/30 10:45:02;;;;;;;5.93;1.40;;;5.70;99.90;;;;;;5055153;28;20475;-72
2023/01/30 10:47:55;;;;;;;6.83;2.10;;;5.90;99.90;;;;;;5077298;28;20506;-71
2023/01/30 10:50:30;;;;;;;4.67;1.97;;;6.10;99.90;;;;;;5059314;28;20483;-72
2023/01/30 10:53:07;;;;;;;13.30;4.20;;;6.30;99.90;;;;;;5075721;28;20467;-72
2023/01/30 10:55:45;;;;;;;10.67;3.20;;;6.30;99.90;;;;;;5067066;28;20502;-72
2023/01/30 10:58:25;;;;;;;10.03;2.83;;;6.20;99.90;;;;;;5067805;28;20569;-72
2023/01/30 11:00:59;;;;;;;15.73;3.33;;;6.20;99.90;;;;;;5056162;28;20472;-71
2023/01/30 11:03:37;;;;;;;9.10;2.53;;;6.10;99.90;;;;;;5052354;28;20488;-70
2023/01/30 11:06:10;;;;;;;9.27;2.17;;;6.00;99.90;;;;;;5055620;28;21434;-72
2023/01/30 11:08:39;;;;;;;3.70;1.13;;;5.90;99.90;;;;;;5049669;28;20485;-70
2023/01/30 11:11:27;;;;;;;3.37;0.83;;;5.70;99.90;;;;;;5062929;28;21448;-72
2023/01/30 11:14:03;;;;;;;3.13;0.90;;;5.40;99.90;;;;;;5078664;28;20491;-70
2023/01/30 11:16:43;;;;;;;2.40;0.80;;;5.30;99.90;;;;;;5065440;28;20471;-70
2023/01/30 11:19:13;;;;;;;2.40;1.00;;;5.10;99.90;;;;;;5077639;28;20540;-70
2023/01/30 11:21:52;;;;;;;2.60;0.93;;;5.10;99.90;;;;;;5065014;28;20563;-70
2023/01/30 11:24:22;;;;;;;2.80;1.10;;;5.00;99.90;;;;;;5066600;28;20559;-71
2023/01/30 11:26:52;;;;;;;3.13;1.10;;;5.00;99.90;;;;;;5055534;28;20876;-71
2023/01/30 11:29:29;;;;;;;4.43;1.27;;;5.00;99.90;;;;;;5061586;28;20545;-71
2023/01/30 11:32:02;;;;;;;3.83;1.03;;;5.00;99.90;;;;;;5062866;28;20515;-71
2023/01/30 11:34:32;;;;;;;4.50;1.20;;;5.00;99.90;;;;;;5061286;28;20496;-69
2023/01/30 11:37:14;;;;;;;5.30;1.40;;;5.00;99.90;;;;;;5053954;28;20608;-69
2023/01/30 11:39:52;;;;;;;3.90;1.70;;;5.10;99.90;;;;;;5067250;28;20492;-69
2023/01/30 11:42:25;;;;;;;6.17;1.40;;;5.20;99.90;;;;;;5050470;28;20465;-69
2023/01/30 11:44:57;;;;;;;7.17;1.50;;;5.10;99.90;;;;;;5065453;28;20488;-69
2023/01/30 11:47:51;;;;;;;3.43;1.50;;;5.20;99.90;;;;;;5081965;28;21032;-69
2023/01/30 11:50:31;;;;;;;12.30;4.60;;;5.30;99.90;;;;;;5082382;28;20485;-69
2023/01/30 11:53:19;;;;;;;4.23;1.67;;;5.40;99.90;;;;;;5081721;28;20892;-72
2023/01/30 11:55:48;;;;;;;34.97;15.20;;;5.70;99.90;;;;;;5083162;28;20469;-71
2023/01/30 11:58:33;;;;;;;20.17;7.93;;;6.20;99.90;;;;;;5077086;28;20593;-72
2023/01/30 12:01:03;;;;;;;10.53;5.30;;;6.90;99.90;;;;;;5075327;28;20472;-72
2023/01/30 12:03:33;;;;;;;6.07;2.00;;;7.40;99.90;;;;;;5071580;28;20561;-67
2023/01/30 12:06:03;;;;;;;4.00;1.70;;;7.70;99.90;;;;;;5073372;28;20910;-69
2023/01/30 12:08:37;;;;;;;4.53;1.50;;;8.00;99.90;;;;;;5082403;28;20487;-72
2023/01/30 12:11:30;;;;;;;7.27;1.93;;;8.20;99.90;;;;;;5081983;28;20471;-69
2023/01/30 12:14:14;;;;;;;5.53;1.53;;;8.40;99.90;;;;;;5063917;28;20519;-68
2023/01/30 12:16:58;;;;;;;6.47;2.17;;;8.40;99.90;;;;;;5061173;28;20469;-68
2023/01/30 12:19:37;;;;;;;5.50;1.87;;;8.30;99.90;;;;;;5064607;28;23932;-68
2023/01/30 12:22:18;;;;;;;11.33;2.67;;;8.00;99.90;;;;;;5076917;28;20954;-68
2023/01/30 12:24:55;;;;;;;8.40;2.00;;;7.70;99.90;;;;;;5066065;28;21287;-68
2023/01/30 12:27:31;;;;;;;7.27;2.10;;;7.40;99.90;;;;;;5051008;28;20572;-67
2023/01/30 12:30:08;;;;;;;8.13;2.33;;;7.10;99.90;;;;;;5073644;28;20616;-68
2023/01/30 12:32:36;;;;;;;6.17;1.90;;;6.90;99.90;;;;;;5083559;28;20479;-68
2023/01/30 12:35:15;;;;;;;5.53;1.80;;;6.80;99.90;;;;;;5078028;28;20493;-67
2023/01/30 12:37:58;;;;;;;2.87;1.37;;;6.70;99.90;;;;;;5078656;28;20464;-68
2023/01/30 12:40:40;;;;;;;7.77;2.13;;;6.60;99.90;;;;;;5077502;28;20502;-69
2023/01/30 12:43:25;;;;;;;4.30;1.73;;;6.50;99.90;;;;;;5066341;28;20522;-68
2023/01/30 12:46:04;;;;;;;3.60;1.63;;;6.30;99.90;;;;;;5080897;28;20468;-69
2023/01/30 12:49:03;;;;;;;5.43;1.80;;;6.30;99.90;;;;;;5073913;28;20492;-69
2023/01/30 12:52:09;;;;;;;7.47;2.37;;;6.30;99.90;;;;;;5082087;28;20587;-68
2023/01/30 12:54:51;;;;;;;10.70;2.50;;;6.30;99.90;;;;;;5074283;28;20515;-69
2023/01/30 12:57:29;;;;;;;9.30;2.50;;;6.50;99.90;;;;;;5071842;28;20468;-69
2023/01/30 13:00:09;;;;;;;13.30;2.57;;;6.80;99.90;;;;;;5075584;28;21019;-69
2023/01/30 13:03:01;;;;;;;11.17;2.60;;;7.60;99.90;;;;;;5069831;28;20935;-68
2023/01/30 13:05:37;;;;;;;6.90;2.77;;;8.20;99.90;;;;;;5089046;28;20502;-68
2023/01/30 13:08:22;;;;;;;17.17;3.20;;;8.40;99.90;;;;;;5080378;28;22532;-68
2023/01/30 13:10:59;;;;;;;15.70;3.83;;;8.20;99.90;;;;;;5083649;28;20466;-68
2023/01/30 13:13:34;;;;;;;10.40;3.67;;;8.00;99.90;;;;;;5079815;28;20489;-69
2023/01/30 13:16:10;;;;;;;9.20;2.90;;;7.70;99.90;;;;;;5078256;28;20928;-69
2023/01/30 13:18:46;;;;;;;11.20;4.07;;;7.40;99.90;;;;;;5077003;28;20493;-69
2023/01/30 13:21:21;;;;;;;18.33;3.40;;;7.20;99.90;;;;;;5077170;28;20471;-69
2023/01/30 13:24:01;;;;;;;14.10;3.30;;;7.10;99.90;;;;;;5077136;28;20506;-69
2023/01/30 13:26:34;;;;;;;13.47;4.07;;;7.00;99.90;;;;;;5070939;28;20473;-69
2023/01/30 13:29:05;;;;;;;14.70;3.73;;;6.90;99.90;;;;;;5080961;28;20496;-69
2023/01/30 13:31:38;;;;;;;14.60;4.00;;;6.90;99.90;;;;;;5074917;28;20473;-69